Eyrarbakki, Islandia

11:34 PM GMT en Septiembre 17, 2014 (GMT +0000)
Kambahraun | Change Station
CLOSE
Current Station
Estación meteorológica personal
Location: Hveragerði,
Altura: 100 ft
Estaciones meteorológicas cercanas

Alt 100 ft 64.00 °N, 21.20 °W | Updated 8 seconds ago

Lluvia
Lluvia
51.1 ° F
Sensación térmica 51.1 ° F
N
2.0
Viento Variable Viento desde Oeste
Gusts 2.0 mph

Hoy
Alta -- | Baja -- ° F
--% Posibilidad de precipitaciones
Ayer
Alta -- | Baja -- ° F
Precip. -- pul
6:53 AM 7:43 PM
Creciente menguante, 32% visible
Presión 30.09 pul
Visibilidad 6.2 Millas
Nubes Baja 2000 ft
Nubes dispersas 2800 ft
Nublado 4300 ft
Punto de rocío 48 ° F
Humedad 89%
Precipitaciones 0.03 pul
Espesor de la nieve No disponible.
UV 0 de una escala de 12
Polen No disponible.
Calidad del aire No disponible.
Flu Activity No disponible.
METAR BIRK 172300Z 07006KT 9999 FEW020 SCT028 OVC043 10/08 Q1019

More Conditions Fewer Conditions

Presión 30.09 pul
Visibilidad 6.2 Millas
Nubes Baja 2000 ft
Nubes dispersas 2800 ft
Nublado 4300 ft
Punto de rocío 48 ° F
Humedad 89%
Precipitaciones 0.03 pul
Espesor de la nieve No disponible.
UV 0 de una escala de 12
Polen No disponible.
Calidad del aire No disponible.
Flu Activity No disponible.
METAR BIRK 172300Z 07006KT 9999 FEW020 SCT028 OVC043 10/08 Q1019

More Conditions Fewer Conditions

10-Day Weather Forecast

Almanac

Astronomía

Sep. 17, 2014 Salida Puesta
Hora real 6:53 AM GMT 7:43 PM GMT
Crepúsculo civil 6:04 AM GMT 8:31 PM GMT
Crepúsculo náutico 5:04 AM GMT 9:30 PM GMT
Crepúsculo astronómico 3:52 AM GMT 10:41 PM GMT
Luna Sin salida de luna 5:13 PM GMT
Horas de luz 14h 26m
Horas de luz
12h 50m
Tomorrow will be 6m 22s shorter.
Creciente menguante, 32% of the Moon is Illuminated
Hoy
Creciente menguante
Sep 24
Nueva
Oct 1
Cuarto creciente
Oct 8
Luna llena
Oct 15
Cuarto menguante

Extremos de hoy

Máximos del país Bajas del país

Community

WunderPhotos

Upload Photos

1,754,192 ¡fotos cargadas!

Nearby

Calidad del aire

Not available.

Grosos de nieve

Not available.

Actividad de terremotos

Ciudad Distance Mag. Tiempo y dato
No hay informes recientes de la actividad sísmica.
Magnitud mínima muestra es 2,5.

Temperaturas de aguas costeras

Lugar Temperatura
Sin partes meteorológicos de las estaciones

Estaciones meteorológicas cercanas